Time;durP1;ratioP1;P1;durP2;ratioP2;P2;SDS_P1;SDS_P2;PMS_P1;PMS_P2;Temp;Humidity;BMP_temperature;BMP_pressure;BME280_temperature;BME280_humidity;BME280_pressure;Samples;Min_cycle;Max_cycle;Signal;HPM_P1;HPM_P2
2023/04/05 00:00:28;;;;;;;;;;;;;;;20.93;39.47;100409.54;103665;1289;61339;-84
2023/04/05 00:02:56;;;;;;;;;;;;;;;20.94;39.42;100409.35;103553;1286;61292;-84
2023/04/05 00:05:28;;;;;;;;;;;;;;;20.94;39.38;100404.33;103781;1286;75220;-83
2023/04/05 00:07:55;;;;;;;;;;;;;;;20.95;39.40;100401.77;103735;1286;61320;-84
2023/04/05 00:10:20;;;;;;;;;;;;;;;20.95;39.40;100396.55;103716;1286;61396;-84
2023/04/05 00:12:46;;;;;;;;;;;;;;;20.96;39.41;100398.84;103719;1286;61461;-84
2023/04/05 00:15:12;;;;;;;;;;;;;;;20.96;39.29;100396.16;103714;1286;61247;-85
2023/04/05 00:17:38;;;;;;;;;;;;;;;20.96;39.33;100397.92;103768;1286;61383;-83
2023/04/05 00:20:06;;;;;;;;;;;;;;;20.96;39.40;100398.84;103615;1286;62554;-84
2023/04/05 00:22:34;;;;;;;;;;;;;;;20.96;39.33;100395.95;103698;1286;61385;-85
2023/04/05 00:25:01;;;;;;;;;;;;;;;20.96;39.33;100396.48;103734;1286;75462;-83
2023/04/05 00:27:27;;;;;;;;;;;;;;;20.97;39.40;100401.60;103807;1286;61237;-84
2023/04/05 00:29:53;;;;;;;;;;;;;;;20.97;39.26;100402.36;103776;1286;62403;-84
2023/04/05 00:32:18;;;;;;;;;;;;;;;20.97;39.42;100403.34;103654;1286;61460;-83
2023/04/05 00:34:44;;;;;;;;;;;;;;;20.97;39.45;100399.78;103504;1286;62286;-84
2023/04/05 00:37:10;;;;;;;;;;;;;;;20.97;39.40;100402.13;103667;1288;61550;-84
2023/04/05 00:39:35;;;;;;;;;;;;;;;20.97;39.55;100399.96;103771;1286;61339;-84
2023/04/05 00:42:02;;;;;;;;;;;;;;;20.97;39.41;100396.38;103738;1286;61397;-85
2023/04/05 00:44:27;;;;;;;;;;;;;;;20.98;39.56;100393.29;103744;1291;61314;-84
2023/04/05 00:46:54;;;;;;;;;;;;;;;20.98;39.40;100389.50;103973;1286;62313;-84
2023/04/05 00:49:19;;;;;;;;;;;;;;;20.98;39.42;100392.19;104122;1286;62455;-83
2023/04/05 00:51:45;;;;;;;;;;;;;;;20.99;39.50;100388.22;103728;1286;61394;-84
2023/04/05 00:54:10;;;;;;;;;;;;;;;20.99;39.49;100389.11;103792;1286;61407;-84
2023/04/05 00:56:36;;;;;;;;;;;;;;;20.99;39.50;100390.16;103693;1286;72632;-84
2023/04/05 00:59:01;;;;;;;;;;;;;;;20.99;39.40;100386.27;103698;1286;62548;-84
2023/04/05 01:01:27;;;;;;;;;;;;;;;20.99;39.60;100382.48;103656;1286;61448;-84
2023/04/05 01:03:54;;;;;;;;;;;;;;;20.99;39.58;100386.26;103670;1286;62478;-85
2023/04/05 01:06:22;;;;;;;;;;;;;;;21.00;39.43;100385.09;103744;1290;61316;-83
2023/04/05 01:09:07;;;;;;;;;;;;;;;21.00;39.47;100385.63;103764;1286;62500;-84
2023/04/05 01:11:33;;;;;;;;;;;;;;;21.01;39.42;100378.06;103672;1289;61323;-84
2023/04/05 01:13:59;;;;;;;;;;;;;;;21.00;39.56;100376.45;103677;1286;61343;-84
2023/04/05 01:16:26;;;;;;;;;;;;;;;21.00;39.46;100374.84;103639;1286;62518;-84
2023/04/05 01:18:55;;;;;;;;;;;;;;;21.00;39.51;100371.99;103764;1291;61368;-84
2023/04/05 01:21:36;;;;;;;;;;;;;;;21.01;39.47;100373.55;103824;1286;62562;-83
2023/04/05 01:24:11;;;;;;;;;;;;;;;21.01;39.47;100371.05;103762;1286;61299;-84
2023/04/05 01:26:45;;;;;;;;;;;;;;;21.01;39.54;100368.00;103671;1288;71694;-84
2023/04/05 01:29:29;;;;;;;;;;;;;;;21.02;39.55;100368.29;103730;1286;74458;-85
2023/04/05 01:31:57;;;;;;;;;;;;;;;21.02;39.51;100367.23;103749;1286;61275;-83
2023/04/05 01:34:42;;;;;;;;;;;;;;;21.02;39.53;100368.98;103745;1286;62474;-83
2023/04/05 01:37:10;;;;;;;;;;;;;;;21.03;39.41;100363.92;103366;1286;72309;-83
2023/04/05 01:39:36;;;;;;;;;;;;;;;21.03;39.60;100365.33;103694;1286;73760;-80
2023/04/05 01:42:02;;;;;;;;;;;;;;;21.04;39.56;100364.75;103698;1291;61477;-84
2023/04/05 01:44:28;;;;;;;;;;;;;;;21.03;39.53;100365.48;103558;1286;61391;-84
2023/04/05 01:46:53;;;;;;;;;;;;;;;21.03;39.50;100364.26;103752;1286;61358;-84
2023/04/05 01:49:19;;;;;;;;;;;;;;;21.03;39.54;100362.44;103729;1286;62571;-84
2023/04/05 01:51:44;;;;;;;;;;;;;;;21.04;39.52;100361.30;103689;1289;74425;-84
2023/04/05 01:54:10;;;;;;;;;;;;;;;21.04;39.53;100358.61;103529;1294;61533;-84
2023/04/05 01:56:35;;;;;;;;;;;;;;;21.04;39.59;100356.64;103745;1286;61352;-84
2023/04/05 01:59:01;;;;;;;;;;;;;;;21.05;39.44;100354.84;103679;1286;61390;-84
2023/04/05 02:01:26;;;;;;;;;;;;;;;21.05;39.42;100358.58;103828;1289;62560;-84
2023/04/05 02:03:52;;;;;;;;;;;;;;;21.05;39.45;100356.23;103631;1289;61396;-83
2023/04/05 02:06:17;;;;;;;;;;;;;;;21.05;39.67;100355.70;103680;1286;62563;-84
2023/04/05 02:08:43;;;;;;;;;;;;;;;21.05;39.49;100356.06;103555;1294;61449;-84
2023/04/05 02:11:08;;;;;;;;;;;;;;;21.05;39.59;100355.35;103735;1289;62004;-84
2023/04/05 02:13:34;;;;;;;;;;;;;;;21.05;39.53;100353.16;103762;1286;61422;-84
2023/04/05 02:15:59;;;;;;;;;;;;;;;21.06;39.46;100353.13;103691;1286;61474;-83
2023/04/05 02:18:30;;;;;;;;;;;;;;;21.06;39.39;100350.81;103716;1290;61386;-84
2023/04/05 02:21:03;;;;;;;;;;;;;;;21.06;39.60;100352.23;103769;1291;61307;-84
2023/04/05 02:23:29;;;;;;;;;;;;;;;21.06;39.55;100349.00;103665;1286;72492;-84
2023/04/05 02:25:55;;;;;;;;;;;;;;;21.06;39.59;100347.73;103675;1286;61367;-84
2023/04/05 02:28:21;;;;;;;;;;;;;;;21.07;39.58;100349.12;103721;1291;61400;-84
2023/04/05 02:30:46;;;;;;;;;;;;;;;21.06;39.59;100349.50;103720;1286;61305;-84
2023/04/05 02:33:12;;;;;;;;;;;;;;;21.07;39.38;100349.48;103634;1291;61401;-84
2023/04/05 02:35:37;;;;;;;;;;;;;;;21.07;39.55;100347.32;103741;1286;61467;-85
2023/04/05 02:38:03;;;;;;;;;;;;;;;21.07;39.62;100345.67;103705;1286;61470;-84
2023/04/05 02:40:29;;;;;;;;;;;;;;;21.08;39.64;100347.97;103674;1291;62485;-85
2023/04/05 02:42:55;;;;;;;;;;;;;;;21.08;39.56;100348.15;103716;1286;61884;-85
2023/04/05 02:45:20;;;;;;;;;;;;;;;21.08;39.47;100350.44;103596;1286;61381;-84
2023/04/05 02:47:46;;;;;;;;;;;;;;;21.09;39.49;100348.23;103621;1288;61329;-84
2023/04/05 02:50:12;;;;;;;;;;;;;;;21.09;39.50;100345.54;103758;1289;60063;-84
2023/04/05 02:52:38;;;;;;;;;;;;;;;21.09;39.58;100343.76;103710;1289;61391;-84
2023/04/05 02:55:06;;;;;;;;;;;;;;;21.09;39.53;100345.01;103761;1286;62011;-83
2023/04/05 02:57:32;;;;;;;;;;;;;;;21.08;39.55;100349.14;103725;1286;73437;-85
2023/04/05 02:59:57;;;;;;;;;;;;;;;21.09;39.53;100346.63;104096;1290;61314;-82
2023/04/05 03:02:23;;;;;;;;;;;;;;;21.09;39.71;100349.65;104053;1286;61391;-82
2023/04/05 03:04:51;;;;;;;;;;;;;;;21.10;39.53;100350.66;104093;1286;61381;-82
2023/04/05 03:07:17;;;;;;;;;;;;;;;21.10;39.74;100353.14;104332;1286;61386;-81
2023/04/05 03:09:46;;;;;;;;;;;;;;;21.11;39.53;100352.92;104312;1286;61310;-82
2023/04/05 03:12:11;;;;;;;;;;;;;;;21.11;39.48;100352.20;103944;1286;61313;-82
2023/04/05 03:14:38;;;;;;;;;;;;;;;21.12;39.70;100356.63;103733;1289;62496;-85
2023/04/05 03:17:05;;;;;;;;;;;;;;;21.13;39.63;100351.53;103706;1286;61238;-83
2023/04/05 03:19:31;;;;;;;;;;;;;;;21.14;39.51;100354.86;103750;1286;61389;-84
2023/04/05 03:21:57;;;;;;;;;;;;;;;21.13;39.55;100355.98;103799;1291;61401;-83
2023/04/05 03:24:24;;;;;;;;;;;;;;;21.14;39.66;100358.61;103571;1286;62449;-84
2023/04/05 03:26:50;;;;;;;;;;;;;;;21.14;39.61;100355.20;103778;1289;61387;-84
2023/04/05 03:29:17;;;;;;;;;;;;;;;21.14;39.61;100358.05;103718;1286;61434;-83
2023/04/05 03:31:44;;;;;;;;;;;;;;;21.14;39.43;100353.44;103785;1291;61361;-84
2023/04/05 03:34:10;;;;;;;;;;;;;;;21.14;39.46;100358.09;103700;1286;62564;-84
2023/04/05 03:36:41;;;;;;;;;;;;;;;21.13;39.29;100355.83;103679;1286;61375;-84
2023/04/05 03:39:11;;;;;;;;;;;;;;;21.13;39.34;100359.23;103694;1286;75494;-85
2023/04/05 03:41:40;;;;;;;;;;;;;;;21.13;39.21;100363.83;103753;1286;62425;-83
2023/04/05 03:44:07;;;;;;;;;;;;;;;21.13;39.23;100360.42;103699;1286;61356;-84
2023/04/05 03:46:32;;;;;;;;;;;;;;;21.14;39.19;100364.68;103740;1286;72682;-83
2023/04/05 03:48:58;;;;;;;;;;;;;;;21.14;39.18;100366.09;103713;1286;61397;-83
2023/04/05 03:51:24;;;;;;;;;;;;;;;21.14;39.18;100366.45;103701;1287;61467;-84
2023/04/05 03:53:50;;;;;;;;;;;;;;;21.14;39.14;100367.18;103779;1286;61319;-85
2023/04/05 03:56:15;;;;;;;;;;;;;;;21.14;39.19;100366.11;103767;1290;61455;-84
2023/04/05 03:58:41;;;;;;;;;;;;;;;21.14;39.27;100369.50;103809;1288;61390;-83
2023/04/05 04:01:09;;;;;;;;;;;;;;;21.14;39.08;100367.74;103850;1286;61385;-83
2023/04/05 04:03:36;;;;;;;;;;;;;;;21.13;38.92;100373.30;103822;1286;61340;-84
2023/04/05 04:06:06;;;;;;;;;;;;;;;21.13;39.02;100369.41;103782;1286;61483;-83
2023/04/05 04:08:31;;;;;;;;;;;;;;;21.13;38.98;100369.92;103696;1286;72806;-84
2023/04/05 04:10:57;;;;;;;;;;;;;;;21.13;38.83;100367.30;103572;1286;61404;-84
2023/04/05 04:13:23;;;;;;;;;;;;;;;21.10;38.86;100367.11;103727;1291;61453;-83
2023/04/05 04:15:49;;;;;;;;;;;;;;;21.09;38.67;100367.35;103757;1286;61359;-85
2023/04/05 04:18:17;;;;;;;;;;;;;;;21.08;38.67;100364.61;103691;1286;61401;-84
2023/04/05 04:20:42;;;;;;;;;;;;;;;21.05;38.42;100366.61;103725;1285;61365;-83
2023/04/05 04:23:09;;;;;;;;;;;;;;;21.02;38.28;100367.23;103551;1289;61865;-83
2023/04/05 04:25:35;;;;;;;;;;;;;;;20.98;38.41;100367.35;103735;1289;61183;-83
2023/04/05 04:28:01;;;;;;;;;;;;;;;20.95;38.37;100369.56;103899;1289;61404;-84
2023/04/05 04:30:27;;;;;;;;;;;;;;;20.91;38.20;100370.56;103867;1288;61829;-83
2023/04/05 04:32:53;;;;;;;;;;;;;;;20.87;38.06;100373.92;103335;1289;61419;-83
2023/04/05 04:35:26;;;;;;;;;;;;;;;20.81;38.05;100377.02;103691;1289;61410;-83
2023/04/05 04:37:56;;;;;;;;;;;;;;;20.77;37.99;100371.63;103660;1289;61446;-84
2023/04/05 04:40:24;;;;;;;;;;;;;;;20.74;37.96;100372.96;103709;1289;73482;-83
2023/04/05 04:42:51;;;;;;;;;;;;;;;20.70;37.98;100374.27;104424;1289;75505;-82
2023/04/05 04:45:17;;;;;;;;;;;;;;;20.68;37.94;100378.36;104120;1289;61173;-83
2023/04/05 04:47:46;;;;;;;;;;;;;;;20.65;37.97;100374.50;104131;1288;61433;-83
2023/04/05 04:50:12;;;;;;;;;;;;;;;20.63;37.85;100376.11;104324;1289;73649;-81
2023/04/05 04:52:39;;;;;;;;;;;;;;;20.60;37.88;100378.23;104087;1292;61410;-82
2023/04/05 04:55:08;;;;;;;;;;;;;;;20.58;37.99;100382.52;104708;1288;61375;-82
2023/04/05 04:57:34;;;;;;;;;;;;;;;20.56;38.02;100385.19;104724;1288;61209;-84
2023/04/05 04:59:59;;;;;;;;;;;;;;;20.54;37.84;100383.20;104770;1294;61339;-83
2023/04/05 05:02:26;;;;;;;;;;;;;;;20.51;37.69;100383.06;104893;1291;62370;-83
2023/04/05 05:04:51;;;;;;;;;;;;;;;20.48;37.74;100384.73;105379;1288;61250;-82
2023/04/05 05:07:17;;;;;;;;;;;;;;;20.43;38.04;100386.64;105009;1287;61311;-82
2023/04/05 05:09:43;;;;;;;;;;;;;;;20.40;37.87;100383.48;105106;1289;59282;-83
2023/04/05 05:12:08;;;;;;;;;;;;;;;20.39;37.88;100387.17;104991;1288;61545;-82
2023/04/05 05:14:34;;;;;;;;;;;;;;;20.38;38.01;100389.52;105032;1287;61695;-83
2023/04/05 05:16:59;;;;;;;;;;;;;;;20.37;37.83;100387.27;104655;1288;61285;-82
2023/04/05 05:19:25;;;;;;;;;;;;;;;20.37;38.01;100389.30;104798;1292;61390;-83
2023/04/05 05:21:52;;;;;;;;;;;;;;;20.35;37.85;100388.00;104902;1288;61314;-83
2023/04/05 05:24:18;;;;;;;;;;;;;;;20.33;37.84;100394.08;104845;1288;61381;-83
2023/04/05 05:26:44;;;;;;;;;;;;;;;20.31;38.00;100390.42;105159;1288;60744;-83
2023/04/05 05:29:09;;;;;;;;;;;;;;;20.31;37.97;100389.77;105168;1289;61234;-83
2023/04/05 05:31:35;;;;;;;;;;;;;;;20.31;37.94;100390.95;104599;1289;61508;-83
2023/04/05 05:34:01;;;;;;;;;;;;;;;20.35;37.98;100386.05;104705;1289;61231;-82
2023/04/05 05:36:27;;;;;;;;;;;;;;;20.39;37.98;100383.96;105203;1289;61349;-82
2023/04/05 05:38:53;;;;;;;;;;;;;;;20.43;37.98;100381.83;105342;1287;61321;-83
2023/04/05 05:41:18;;;;;;;;;;;;;;;20.48;38.04;100378.05;105098;1288;61321;-82
2023/04/05 05:43:44;;;;;;;;;;;;;;;20.53;38.10;100379.13;104811;1288;61355;-83
2023/04/05 05:46:10;;;;;;;;;;;;;;;20.59;37.98;100381.93;104919;1287;61289;-83
2023/04/05 05:48:36;;;;;;;;;;;;;;;20.63;38.00;100383.42;104721;1289;62572;-83
2023/04/05 05:51:01;;;;;;;;;;;;;;;20.67;38.05;100383.63;105005;1286;61285;-83
2023/04/05 05:53:27;;;;;;;;;;;;;;;20.69;37.99;100385.81;105475;1286;61238;-84
2023/04/05 05:55:52;;;;;;;;;;;;;;;20.69;38.12;100388.30;105326;1291;61371;-83
2023/04/05 05:58:18;;;;;;;;;;;;;;;20.69;38.22;100389.95;105556;1285;60476;-83
2023/04/05 06:00:43;;;;;;;;;;;;;;;20.68;38.27;100389.09;105437;1291;59777;-83
2023/04/05 06:03:09;;;;;;;;;;;;;;;20.70;38.43;100390.58;105524;1285;61462;-82
2023/04/05 06:05:35;;;;;;;;;;;;;;;20.71;38.27;100389.39;105462;1286;60718;-83
2023/04/05 06:08:02;;;;;;;;;;;;;;;20.74;38.33;100389.93;105342;1286;61206;-83
2023/04/05 06:10:28;;;;;;;;;;;;;;;20.77;38.42;100389.88;105455;1288;60068;-83
2023/04/05 06:12:53;;;;;;;;;;;;;;;20.79;38.42;100392.20;105301;1285;59822;-83
2023/04/05 06:15:20;;;;;;;;;;;;;;;20.81;38.42;100395.85;105430;1286;61265;-83
2023/04/05 06:17:45;;;;;;;;;;;;;;;20.80;38.29;100393.73;105599;1286;61239;-83
2023/04/05 06:20:11;;;;;;;;;;;;;;;20.80;38.51;100395.94;105365;1286;61246;-82
2023/04/05 06:22:40;;;;;;;;;;;;;;;20.77;38.75;100395.39;105129;1287;61276;-82
2023/04/05 06:25:06;;;;;;;;;;;;;;;20.73;38.76;100397.49;105179;1286;61461;-83
2023/04/05 06:27:33;;;;;;;;;;;;;;;20.69;38.99;100398.88;104894;1291;61346;-83
2023/04/05 06:29:59;;;;;;;;;;;;;;;20.65;38.97;100403.47;105197;1286;73898;-82
2023/04/05 06:32:24;;;;;;;;;;;;;;;20.60;39.07;100401.83;105186;1285;59704;-82
2023/04/05 06:34:50;;;;;;;;;;;;;;;20.56;39.22;100405.90;104995;1286;61360;-82
2023/04/05 06:37:15;;;;;;;;;;;;;;;20.51;39.46;100405.00;105045;1286;61406;-83
2023/04/05 06:39:41;;;;;;;;;;;;;;;20.47;39.49;100402.63;104769;1286;60022;-82
2023/04/05 06:42:06;;;;;;;;;;;;;;;20.43;39.40;100403.96;104746;1286;61432;-83
2023/04/05 06:44:31;;;;;;;;;;;;;;;20.40;39.47;100406.71;104768;1291;61364;-83
2023/04/05 06:46:57;;;;;;;;;;;;;;;20.37;39.37;100409.09;104858;1291;61372;-83
2023/04/05 06:49:22;;;;;;;;;;;;;;;20.35;39.60;100410.00;105157;1286;61394;-83
2023/04/05 06:51:48;;;;;;;;;;;;;;;20.33;39.50;100408.02;105555;1291;61356;-84
2023/04/05 06:54:14;;;;;;;;;;;;;;;20.29;39.62;100410.76;105642;1286;59476;-82
2023/04/05 06:56:40;;;;;;;;;;;;;;;20.26;39.62;100408.98;105241;1290;61276;-83
2023/04/05 06:59:06;;;;;;;;;;;;;;;20.27;39.59;100410.74;105115;1291;61417;-83
2023/04/05 07:01:31;;;;;;;;;;;;;;;20.28;39.60;100412.83;105085;1286;60063;-82
2023/04/05 07:04:08;;;;;;;;;;;;;;;20.30;39.56;100417.73;104769;1285;728634;-83
2023/04/05 07:06:37;;;;;;;;;;;;;;;20.32;39.62;100420.77;105313;1286;75377;-83
2023/04/05 07:09:03;;;;;;;;;;;;;;;20.34;39.74;100423.27;105157;1286;61315;-85
2023/04/05 07:11:31;;;;;;;;;;;;;;;20.35;39.84;100424.99;105531;1289;61127;-83
2023/04/05 07:14:00;;;;;;;;;;;;;;;20.34;39.75;100423.65;105384;1286;71890;-83
2023/04/05 07:16:26;;;;;;;;;;;;;;;20.36;39.60;100427.77;105255;1286;59919;-83
2023/04/05 07:18:51;;;;;;;;;;;;;;;20.38;39.68;100426.88;105100;1286;60371;-84
2023/04/05 07:21:16;;;;;;;;;;;;;;;20.41;39.67;100431.11;105010;1288;61441;-84
2023/04/05 07:23:42;;;;;;;;;;;;;;;20.44;39.71;100432.55;105424;1286;61322;-84
2023/04/05 07:26:08;;;;;;;;;;;;;;;20.46;39.62;100430.77;105495;1285;72447;-83
2023/04/05 07:28:34;;;;;;;;;;;;;;;20.47;39.55;100427.47;105036;1286;61294;-83
2023/04/05 07:31:03;;;;;;;;;;;;;;;20.49;39.55;100428.79;105260;1286;61315;-83
2023/04/05 07:33:28;;;;;;;;;;;;;;;20.50;39.35;100429.58;105344;1289;61176;-83
2023/04/05 07:35:54;;;;;;;;;;;;;;;20.52;39.44;100433.23;105187;1286;61292;-81
2023/04/05 07:38:20;;;;;;;;;;;;;;;20.53;39.37;100431.70;105441;1286;61378;-84
2023/04/05 07:40:47;;;;;;;;;;;;;;;20.54;39.47;100428.42;105423;1286;60153;-84
2023/04/05 07:43:12;;;;;;;;;;;;;;;20.54;39.34;100432.46;106572;1286;59701;-83
2023/04/05 07:45:38;;;;;;;;;;;;;;;20.55;39.33;100430.84;106625;1285;59746;-83
2023/04/05 07:48:03;;;;;;;;;;;;;;;20.56;39.35;100431.99;106707;1286;59380;-84
2023/04/05 07:50:29;;;;;;;;;;;;;;;20.57;39.30;100429.09;106726;1286;75425;-84
2023/04/05 07:52:54;;;;;;;;;;;;;;;20.57;39.32;100428.02;106460;1291;60366;-84
2023/04/05 07:55:20;;;;;;;;;;;;;;;20.57;39.34;100431.16;104718;1286;61399;-83
2023/04/05 07:57:46;;;;;;;;;;;;;;;20.57;39.20;100431.16;105273;1286;60959;-83
2023/04/05 08:00:12;;;;;;;;;;;;;;;20.58;39.40;100437.94;105224;1286;61292;-83
2023/04/05 08:02:38;;;;;;;;;;;;;;;20.58;39.32;100443.63;105080;1286;61590;-83
2023/04/05 08:05:04;;;;;;;;;;;;;;;20.59;39.21;100448.77;105524;1286;61070;-84
2023/04/05 08:07:30;;;;;;;;;;;;;;;20.60;39.49;100447.83;105129;1290;61205;-83
2023/04/05 08:09:58;;;;;;;;;;;;;;;20.61;39.45;100450.79;105045;1286;61298;-84
2023/04/05 08:12:25;;;;;;;;;;;;;;;20.62;39.69;100444.09;105285;1286;75549;-83
2023/04/05 08:14:52;;;;;;;;;;;;;;;20.63;39.77;100450.66;105236;1286;61272;-84
2023/04/05 08:17:19;;;;;;;;;;;;;;;20.64;39.78;100452.38;104895;1286;60177;-83
2023/04/05 08:19:45;;;;;;;;;;;;;;;20.64;39.74;100453.98;104913;1289;61151;-83
2023/04/05 08:22:11;;;;;;;;;;;;;;;20.64;39.65;100454.65;104882;1287;61317;-83
2023/04/05 08:24:37;;;;;;;;;;;;;;;20.64;39.85;100455.69;104770;1286;61431;-83
2023/04/05 08:27:02;;;;;;;;;;;;;;;20.67;39.71;100452.15;105269;1286;61266;-83
2023/04/05 08:29:27;;;;;;;;;;;;;;;20.68;39.87;100452.21;105192;1286;61604;-84
2023/04/05 08:31:55;;;;;;;;;;;;;;;20.70;39.81;100452.11;105468;1291;61290;-84
2023/04/05 08:34:21;;;;;;;;;;;;;;;20.72;39.91;100453.02;105220;1286;75378;-84
2023/04/05 08:36:47;;;;;;;;;;;;;;;20.73;39.96;100452.62;105187;1291;63073;-83
2023/04/05 08:39:14;;;;;;;;;;;;;;;20.73;39.87;100452.38;104931;1286;61335;-84
2023/04/05 08:41:40;;;;;;;;;;;;;;;20.74;39.94;100450.16;104830;1286;61244;-82
2023/04/05 08:44:06;;;;;;;;;;;;;;;20.75;40.10;100449.00;104567;1286;61294;-83
2023/04/05 08:46:32;;;;;;;;;;;;;;;20.77;40.13;100451.91;104879;1286;61734;-81
2023/04/05 08:48:58;;;;;;;;;;;;;;;20.78;40.23;100453.27;105549;1286;59721;-81
2023/04/05 08:51:24;;;;;;;;;;;;;;;20.79;40.09;100456.81;105379;1286;62278;-81
2023/04/05 08:53:50;;;;;;;;;;;;;;;20.80;40.22;100458.35;104995;1291;61307;-82
2023/04/05 08:56:18;;;;;;;;;;;;;;;20.82;40.34;100461.78;105036;1285;59394;-82
2023/04/05 08:58:46;;;;;;;;;;;;;;;20.84;40.22;100467.85;104850;1286;61481;-82
2023/04/05 09:01:11;;;;;;;;;;;;;;;20.81;40.06;100465.77;105073;1288;61269;-81
2023/04/05 09:03:36;;;;;;;;;;;;;;;20.70;40.02;100469.96;105350;1286;61981;-83
2023/04/05 09:06:05;;;;;;;;;;;;;;;20.66;40.22;100473.48;105272;1286;61756;-82
2023/04/05 09:08:30;;;;;;;;;;;;;;;20.64;40.37;100473.81;105123;1286;61602;-83
2023/04/05 09:10:56;;;;;;;;;;;;;;;20.60;40.36;100473.70;105309;1291;59709;-83
2023/04/05 09:13:21;;;;;;;;;;;;;;;20.56;40.45;100473.98;105232;1291;61182;-82
2023/04/05 09:15:47;;;;;;;;;;;;;;;20.56;40.43;100477.77;105185;1289;61372;-82
2023/04/05 09:18:12;;;;;;;;;;;;;;;20.56;40.41;100478.96;105244;1287;61388;-81
2023/04/05 09:20:37;;;;;;;;;;;;;;;20.59;40.58;100481.86;105503;1285;61244;-82
2023/04/05 09:23:03;;;;;;;;;;;;;;;20.61;40.60;100480.98;105046;1288;61702;-82
2023/04/05 09:25:31;;;;;;;;;;;;;;;20.63;40.56;100479.05;105404;1291;61403;-82
2023/04/05 09:27:57;;;;;;;;;;;;;;;20.65;40.73;100479.42;105261;1289;59289;-82
2023/04/05 09:30:23;;;;;;;;;;;;;;;20.67;40.75;100478.92;106573;1286;59158;-81
2023/04/05 09:32:51;;;;;;;;;;;;;;;20.69;40.78;100471.81;106222;1286;60199;-82
2023/04/05 09:35:24;;;;;;;;;;;;;;;20.72;40.75;100474.14;104945;1290;61378;-81
2023/04/05 09:37:53;;;;;;;;;;;;;;;20.73;40.81;100470.78;104973;1286;61169;-82
2023/04/05 09:40:19;;;;;;;;;;;;;;;20.75;40.77;100468.00;105186;1285;60311;-82
2023/04/05 09:42:46;;;;;;;;;;;;;;;20.78;40.89;100469.59;105032;1286;61445;-82
2023/04/05 09:45:11;;;;;;;;;;;;;;;20.79;40.77;100465.93;105191;1292;61450;-82
2023/04/05 09:47:37;;;;;;;;;;;;;;;20.78;41.06;100463.84;105101;1285;61243;-82
2023/04/05 09:50:05;;;;;;;;;;;;;;;20.76;41.12;100463.25;105301;1290;59910;-83
2023/04/05 09:52:31;;;;;;;;;;;;;;;20.73;41.08;100462.06;105381;1286;59860;-83
2023/04/05 09:54:57;;;;;;;;;;;;;;;20.68;41.12;100463.48;105261;1291;61336;-83
2023/04/05 09:57:25;;;;;;;;;;;;;;;20.60;40.92;100466.16;105037;1286;61333;-83
2023/04/05 09:59:51;;;;;;;;;;;;;;;20.53;40.94;100467.27;105103;1286;61573;-83
2023/04/05 10:02:17;;;;;;;;;;;;;;;20.49;40.89;100464.54;105550;1292;59905;-83
2023/04/05 10:04:43;;;;;;;;;;;;;;;20.45;41.03;100463.75;105106;1285;61329;-83
2023/04/05 10:07:12;;;;;;;;;;;;;;;20.41;40.81;100463.30;105517;1286;59733;-83
2023/04/05 10:09:39;;;;;;;;;;;;;;;20.38;40.99;100461.05;105634;1286;61269;-83
2023/04/05 10:12:05;;;;;;;;;;;;;;;20.37;40.99;100458.27;105698;1289;59268;-83
2023/04/05 10:14:31;;;;;;;;;;;;;;;20.36;40.99;100453.67;105524;1294;60128;-84
2023/04/05 10:16:59;;;;;;;;;;;;;;;20.35;40.97;100451.41;105564;1285;61263;-83
2023/04/05 10:19:27;;;;;;;;;;;;;;;20.31;40.88;100450.10;105543;1286;62488;-82
2023/04/05 10:21:53;;;;;;;;;;;;;;;20.30;40.85;100452.33;106473;1290;72239;-83
2023/04/05 10:24:18;;;;;;;;;;;;;;;20.30;41.00;100455.17;106285;1286;59488;-83
2023/04/05 10:26:44;;;;;;;;;;;;;;;20.32;40.92;100453.23;106372;1286;59420;-83
2023/04/05 10:29:16;;;;;;;;;;;;;;;20.32;40.77;100455.09;106484;1286;59409;-83
2023/04/05 10:31:41;;;;;;;;;;;;;;;20.31;40.83;100455.16;106416;1285;72200;-84
2023/04/05 10:34:07;;;;;;;;;;;;;;;20.31;40.87;100450.14;106435;1286;59336;-83
2023/04/05 10:36:38;;;;;;;;;;;;;;;20.32;40.77;100450.25;106400;1286;59802;-83
2023/04/05 10:39:26;;;;;;;;;;;;;;;20.31;40.87;100451.02;106304;1288;60035;-83
2023/04/05 10:41:52;;;;;;;;;;;;;;;20.31;40.78;100454.40;106264;1289;72431;-83
2023/04/05 10:44:17;;;;;;;;;;;;;;;20.32;40.84;100455.59;104914;1286;61931;-82
2023/04/05 10:46:44;;;;;;;;;;;;;;;20.30;40.71;100449.64;104903;1286;61350;-83
2023/04/05 10:49:40;;;;;;;;;;;;;;;20.28;40.62;100451.23;105154;1290;60857;-83
2023/04/05 10:52:06;;;;;;;;;;;;;;;20.24;40.46;100455.61;104705;1294;72647;-83
2023/04/05 10:54:31;;;;;;;;;;;;;;;20.20;40.46;100453.41;104827;1294;59804;-83
2023/04/05 10:56:57;;;;;;;;;;;;;;;20.19;40.56;100452.06;104842;1294;61396;-83
2023/04/05 10:59:22;;;;;;;;;;;;;;;20.18;40.57;100448.94;104822;1298;61283;-83
2023/04/05 11:01:48;;;;;;;;;;;;;;;20.16;40.43;100452.08;104825;1298;61313;-83
2023/04/05 11:04:14;;;;;;;;;;;;;;;20.12;40.26;100455.58;104898;1295;73602;-84
2023/04/05 11:06:40;;;;;;;;;;;;;;;20.02;40.06;100453.97;104943;1293;61278;-83
2023/04/05 11:09:16;;;;;;;;;;;;;;;19.83;39.64;100458.42;104890;1295;61462;-83
2023/04/05 11:11:42;;;;;;;;;;;;;;;19.57;39.81;100455.74;104717;1294;61392;-83
2023/04/05 11:14:18;;;;;;;;;;;;;;;19.37;39.73;100454.08;104926;1295;61499;-83
2023/04/05 11:16:45;;;;;;;;;;;;;;;19.13;39.72;100458.59;104575;1298;76439;-84
2023/04/05 11:19:10;;;;;;;;;;;;;;;19.02;39.83;100460.20;104597;1293;61404;-87
2023/04/05 11:21:36;;;;;;;;;;;;;;;18.89;39.88;100459.30;104472;1293;61468;-83
2023/04/05 11:24:08;;;;;;;;;;;;;;;18.85;40.11;100458.48;104385;1297;59878;-82
2023/04/05 11:26:40;;;;;;;;;;;;;;;18.89;40.22;100463.59;104325;1293;75613;-82
2023/04/05 11:29:05;;;;;;;;;;;;;;;18.99;40.29;100459.89;104614;1287;61483;-82
2023/04/05 11:31:31;;;;;;;;;;;;;;;19.11;40.33;100457.08;104504;1292;61295;-83
2023/04/05 11:34:08;;;;;;;;;;;;;;;19.24;40.28;100459.11;104558;1286;61285;-82
2023/04/05 11:36:35;;;;;;;;;;;;;;;19.35;40.31;100450.98;104673;1292;75277;-81
2023/04/05 11:39:22;;;;;;;;;;;;;;;19.44;40.28;100450.19;105175;1286;59388;-82
2023/04/05 11:41:55;;;;;;;;;;;;;;;19.57;40.07;100448.06;104809;1285;61425;-83
2023/04/05 11:44:20;;;;;;;;;;;;;;;19.66;40.14;100450.98;104646;1287;72603;-82
2023/04/05 11:46:46;;;;;;;;;;;;;;;19.72;40.03;100454.70;104656;1286;61410;-82
2023/04/05 11:49:14;;;;;;;;;;;;;;;19.76;39.94;100451.87;104696;1286;61272;-82
2023/04/05 11:51:47;;;;;;;;;;;;;;;19.81;39.93;100451.41;104779;1288;61495;-82
2023/04/05 11:54:29;;;;;;;;;;;;;;;19.83;39.99;100449.97;105792;1286;73569;-82
2023/04/05 11:56:56;;;;;;;;;;;;;;;19.85;39.88;100449.31;105161;1286;74269;-83
2023/04/05 11:59:31;;;;;;;;;;;;;;;19.86;39.82;100449.04;105188;1286;61403;-83
2023/04/05 12:02:00;;;;;;;;;;;;;;;19.84;39.83;100447.29;105530;1292;59348;-83
2023/04/05 12:04:25;;;;;;;;;;;;;;;19.80;39.69;100445.05;105648;1291;72301;-83
2023/04/05 12:07:07;;;;;;;;;;;;;;;19.74;39.63;100445.09;105840;1285;59406;-83
2023/04/05 12:09:32;;;;;;;;;;;;;;;19.75;39.61;100444.08;105664;1286;60754;-83
2023/04/05 12:11:58;;;;;;;;;;;;;;;19.77;39.63;100440.95;105530;1287;61310;-82
2023/04/05 12:14:23;;;;;;;;;;;;;;;19.76;39.74;100436.88;105549;1286;59841;-82
2023/04/05 12:16:49;;;;;;;;;;;;;;;19.78;39.60;100439.42;105732;1289;61905;-82
2023/04/05 12:19:14;;;;;;;;;;;;;;;19.81;39.45;100435.70;105475;1286;61309;-82
2023/04/05 12:21:40;;;;;;;;;;;;;;;19.81;39.33;100434.79;105199;1286;61185;-82
2023/04/05 12:24:05;;;;;;;;;;;;;;;19.83;39.27;100425.73;105009;1286;61441;-82